Fruitland, IA

1:43 AM CST on February 23, 2017 (GMT -0600)
Muscatine Municipal

Weather History for KMUT - April, 2013

Change the Weather History Date:

Wednesday, April 24, 2013

  Actual Average Record
Temperature  
Mean Temperature 43 °F -  
Max Temperature 53 °F 65 °F 87 °F (1990)
Min Temperature 33 °F 41 °F 22 °F (1956)
Degree Days  
Heating Degree Days 22    
Moisture  
Dew Point 24 °F    
Average Humidity 50    
Maximum Humidity 75    
Minimum Humidity 21    
Precipitation  
Precipitation 0.00 in - - ()
Sea Level Pressure  
Sea Level Pressure 30.09 in    
Wind  
Wind Speed 11 mph (West)    
Max Wind Speed 17 mph    
Max Gust Speed 23 mph    
Visibility 10 miles    
Events      
Averages and records for this station are not official NWS values.
T = Trace of Precipitation, MM = Missing Value Source: NWS Daily Summary

Daily Weather History Graph

Daily Weather History Graph

Search for Another Location

Airport or City:

Trip Planner

Search our weather history database for the weather conditions in past years. The results will help you decide how hot, cold, wet, or windy it might be!

Date:

Astronomy

Apr. 24, 2013 Rise Set
Actual Time 6:11 AM CDT 7:54 PM CDT
Civil Twilight 5:41 AM CDT 8:24 PM CDT
Nautical Twilight 5:06 AM CDT 9:00 PM CDT
Astronomical Twilight 4:27 AM CDT 9:38 PM CDT
Moon 6:58 PM CDT (4/24) 5:15 AM CDT (4/24)
Length of Visible Light 14h 42m
Length of Day
13h 43m
Waxing Gibbous, 98% of the Moon is Illuminated
Apr 24
Waxing Gibbous
Apr 25
Full
May 2
Last Quarter
May 9
New
May 17
First Quarter

Hourly Weather History & Observations

Time (CDT) Temp. Windchill Dew Point Humidity Pressure Visibility Wind Dir Wind Speed Gust Speed Precip Events Conditions
12:15 AM 39.2 °F 32.5 °F 28.4 °F 65% 30.05 in 10.0 mi NW 10.4 mph - N/A   Overcast
12:35 AM 39.2 °F 33.6 °F 28.4 °F 65% 30.05 in 10.0 mi NW 8.1 mph - N/A   Overcast
12:55 AM 39.2 °F 33.0 °F 28.4 °F 65% 30.05 in 10.0 mi NW 9.2 mph - N/A   Mostly Cloudy
1:15 AM 37.4 °F 31.4 °F 26.6 °F 65% 30.06 in 10.0 mi NW 8.1 mph - N/A   Scattered Clouds
1:35 AM 37.4 °F 30.3 °F 28.4 °F 70% 30.05 in 10.0 mi NW 10.4 mph - N/A   Mostly Cloudy
1:55 AM 37.4 °F 31.4 °F 26.6 °F 65% 30.05 in 10.0 mi NW 8.1 mph - N/A   Scattered Clouds
2:15 AM 37.4 °F 30.3 °F 26.6 °F 65% 30.05 in 10.0 mi NW 10.4 mph - N/A   Clear
2:35 AM 37.4 °F 29.8 °F 26.6 °F 65% 30.04 in 10.0 mi NNW 11.5 mph 17.3 mph N/A   Clear
2:55 AM 37.4 °F 30.3 °F 26.6 °F 65% 30.04 in 10.0 mi NW 10.4 mph - N/A   Scattered Clouds
3:15 AM 35.6 °F 27.5 °F 26.6 °F 70% 30.04 in 10.0 mi NW 11.5 mph 16.1 mph N/A   Scattered Clouds
3:35 AM 35.6 °F 28.0 °F 26.6 °F 70% 30.05 in 10.0 mi NW 10.4 mph - N/A   Scattered Clouds
3:55 AM 35.6 °F 29.2 °F 26.6 °F 70% 30.05 in 10.0 mi NW 8.1 mph - N/A   Mostly Cloudy
4:15 AM 35.6 °F 28.0 °F 26.6 °F 70% 30.06 in 10.0 mi NW 10.4 mph - N/A   Scattered Clouds
4:35 AM 35.6 °F 29.2 °F 26.6 °F 70% 30.06 in 10.0 mi NW 8.1 mph - N/A   Scattered Clouds
5:15 AM 35.6 °F 28.0 °F 24.8 °F 65% 30.07 in 10.0 mi NW 10.4 mph - N/A   Mostly Cloudy
5:35 AM 33.8 °F 25.8 °F 26.6 °F 75% 30.07 in 10.0 mi NW 10.4 mph - N/A   Scattered Clouds
5:55 AM 33.8 °F 26.4 °F 26.6 °F 75% 30.07 in 10.0 mi NW 9.2 mph - N/A   Clear
6:15 AM 33.8 °F 25.8 °F 26.6 °F 75% 30.08 in 10.0 mi WNW 10.4 mph - N/A   Scattered Clouds
6:35 AM 33.8 °F 25.8 °F 26.6 °F 75% 30.09 in 10.0 mi WNW 10.4 mph - N/A   Mostly Cloudy
6:55 AM 33.8 °F 26.4 °F 26.6 °F 75% 30.10 in 10.0 mi WNW 9.2 mph - N/A   Overcast
7:15 AM 33.8 °F 26.4 °F 26.6 °F 75% 30.11 in 10.0 mi WNW 9.2 mph - N/A   Overcast
7:35 AM 33.8 °F 24.8 °F 26.6 °F 75% 30.11 in 10.0 mi WNW 12.7 mph - N/A   Mostly Cloudy
7:55 AM 33.8 °F 25.3 °F 26.6 °F 75% 30.12 in 10.0 mi WNW 11.5 mph - N/A   Mostly Cloudy
8:15 AM 35.6 °F 26.6 °F 26.6 °F 70% 30.12 in 10.0 mi WNW 13.8 mph 17.3 mph N/A   Mostly Cloudy
8:35 AM 35.6 °F 28.0 °F 26.6 °F 70% 30.12 in 10.0 mi NW 10.4 mph - N/A   Scattered Clouds
8:55 AM 37.4 °F 29.8 °F 26.6 °F 65% 30.13 in 10.0 mi NW 11.5 mph - N/A   Clear
9:15 AM 39.2 °F 32.0 °F 26.6 °F 61% 30.13 in 10.0 mi NW 11.5 mph - N/A   Clear
9:35 AM 39.2 °F 32.0 °F 28.4 °F 65% 30.13 in 10.0 mi WNW 11.5 mph - N/A   Clear
9:55 AM 41.0 °F 34.7 °F 28.4 °F 61% 30.13 in 10.0 mi WNW 10.4 mph - N/A   Clear
10:15 AM 42.8 °F 36.2 °F 26.6 °F 53% 30.13 in 10.0 mi NW 12.7 mph 16.1 mph N/A   Clear
10:35 AM 42.8 °F 36.6 °F 23.0 °F 46% 30.13 in 10.0 mi WNW 11.5 mph - N/A   Scattered Clouds
10:55 AM 42.8 °F 37.5 °F 24.8 °F 49% 30.13 in 10.0 mi West 9.2 mph 17.3 mph N/A   Scattered Clouds
11:15 AM 42.8 °F 36.6 °F 24.8 °F 49% 30.13 in 10.0 mi WNW 11.5 mph - N/A   Clear
11:35 AM 42.8 °F 36.2 °F 24.8 °F 49% 30.13 in 10.0 mi West 12.7 mph 17.3 mph N/A   Clear
11:55 AM 44.6 °F 38.1 °F 24.8 °F 46% 30.13 in 10.0 mi West 13.8 mph 18.4 mph N/A   Clear
12:15 PM 44.6 °F 38.8 °F 24.8 °F 46% 30.13 in 10.0 mi West 11.5 mph 20.7 mph N/A   Clear
12:35 PM 44.6 °F 38.8 °F 23.0 °F 43% 30.12 in 10.0 mi West 11.5 mph 19.6 mph N/A   Clear
12:55 PM 46.4 °F 39.8 °F 21.2 °F 37% 30.13 in 10.0 mi WNW 16.1 mph 19.6 mph N/A   Clear
1:15 PM 48.2 °F - 23.0 °F 37% 30.12 in 10.0 mi WNW 17.3 mph 23.0 mph N/A   Clear
1:35 PM 48.2 °F - 19.4 °F 32% 30.11 in 10.0 mi WNW 13.8 mph 23.0 mph N/A   Clear
1:55 PM 48.2 °F - 19.4 °F 32% 30.11 in 10.0 mi West 9.2 mph 21.9 mph N/A   Clear
2:15 PM 50.0 °F - 17.6 °F 28% 30.11 in 10.0 mi WSW 12.7 mph 16.1 mph N/A   Clear
2:35 PM 50.0 °F - 14.0 °F 24% 30.12 in 10.0 mi West 12.7 mph 20.7 mph N/A   Clear
2:55 PM 51.8 °F - 12.2 °F 21% 30.11 in 10.0 mi WNW 16.1 mph - N/A   Clear
3:15 PM 51.8 °F - 12.2 °F 21% 30.10 in 10.0 mi WSW 8.1 mph - N/A   Clear
3:35 PM 51.8 °F - 15.8 °F 24% 30.10 in 10.0 mi WSW 9.2 mph - N/A   Clear
3:55 PM 51.8 °F - 15.8 °F 24% 30.09 in 10.0 mi West 12.7 mph 17.3 mph N/A   Clear
4:15 PM 53.6 °F - 17.6 °F 24% 30.09 in 10.0 mi West 15.0 mph 19.6 mph N/A   Clear
4:35 PM 53.6 °F - 17.6 °F 24% 30.09 in 10.0 mi WSW 11.5 mph - N/A   Clear
4:55 PM 53.6 °F - 19.4 °F 26% 30.09 in 10.0 mi West 13.8 mph 20.7 mph N/A   Clear
5:15 PM 53.6 °F - 19.4 °F 26% 30.09 in 10.0 mi WSW 9.2 mph 17.3 mph N/A   Clear
5:35 PM 53.6 °F - 17.6 °F 24% 30.10 in 10.0 mi WSW 17.3 mph - N/A   Scattered Clouds
5:55 PM 53.6 °F - 15.8 °F 22% 30.10 in 10.0 mi WSW 11.5 mph 23.0 mph N/A   Scattered Clouds
6:15 PM 51.8 °F - 17.6 °F 26% 30.09 in 10.0 mi WSW 12.7 mph 16.1 mph N/A   Clear
6:35 PM 53.6 °F - 17.6 °F 24% 30.09 in 10.0 mi WSW 16.1 mph - N/A   Clear
6:55 PM 51.8 °F - 17.6 °F 26% 30.09 in 10.0 mi SW 15.0 mph 18.4 mph N/A   Clear
7:15 PM 51.8 °F - 19.4 °F 28% 30.09 in 10.0 mi SW 11.5 mph - N/A   Clear
7:35 PM 50.0 °F - 21.2 °F 32% 30.09 in 10.0 mi SW 11.5 mph 16.1 mph N/A   Clear
7:55 PM 48.2 °F - 21.2 °F 34% 30.09 in 10.0 mi SSW 10.4 mph - N/A   Clear
8:15 PM 48.2 °F - 24.8 °F 40% 30.09 in 10.0 mi SW 8.1 mph - N/A   Clear
8:35 PM 46.4 °F 42.4 °F 26.6 °F 46% 30.10 in 10.0 mi SW 8.1 mph - N/A   Clear
8:55 PM 46.4 °F 41.9 °F 24.8 °F 43% 30.10 in 10.0 mi SW 9.2 mph - N/A   Clear
10:15 PM 44.6 °F 38.8 °F 26.6 °F 49% 30.10 in 10.0 mi SSW 11.5 mph - N/A   Clear
10:35 PM 44.6 °F 38.8 °F 26.6 °F 49% 30.11 in 10.0 mi SSW 11.5 mph - N/A   Clear
10:55 PM 44.6 °F 38.4 °F 26.6 °F 49% 30.11 in 10.0 mi SSW 12.7 mph - N/A   Scattered Clouds
11:15 PM 44.6 °F 38.1 °F 26.6 °F 49% 30.11 in 10.0 mi SSW 13.8 mph - N/A   Mostly Cloudy
11:35 PM 46.4 °F 40.4 °F 26.6 °F 46% 30.10 in 10.0 mi SSW 13.8 mph 18.4 mph N/A   Overcast
11:55 PM 46.4 °F 39.8 °F 26.6 °F 46% 30.10 in 10.0 mi SW 16.1 mph - N/A   Overcast